Messwerte Algetshausen

Temperatur

Temperatur
°C
1537783200 12.00 12.00 9.6
1537786800 13.00 13.00 11.2
1537790400 14.00 14.00 11.6
1537794000 15.00 15.00 11.8
1537797600 16.00 16.00 11.6
1537801200 17.00 17.00 12.2
1537804800 18.00 18.00 11.7
1537808400 19.00 19.00 11.6
1537812000 20.00 20.00 8.7
1537815600 21.00 21.00 8.7
1537819200 22.00 22.00
1537822800 23.00 23.00
1537826400 0.00 0.00
1537830000 1.00 1.00
1537833600 2.00 2.00
1537837200 3.00 3.00
1537840800 4.00 4.00
1537844400 5.00 5.00 3.1
1537848000 6.00 6.00 2.6
1537851600 7.00 7.00 2.5
1537855200 8.00 8.00 2.6
1537858800 9.00 9.00 4.6
1537862400 10.00 10.00 7.2
1537866000 11.00 11.00 8.8

Wir danken unserem Partner: Wetter Algetshausen

Aktuellste Messwerte

Wettercharakter
Wetter: recht sonnig
Temperatur
8.8 °C
Feuchtigkeit
82 %
Wind
14 km/hWindrichtung: Nordost
Böen
29 km/h
Niederschlag
0.0 mm
Luftdruck
1038.0 hPa
Globalstrahlung
447 W/m²
Messzeit: 25. September 2018, 11.00Datenquelle: MeteoNews Partner, Wetter Algetshausen

Weitere Messstationen in der Nähe

Messstation Temperatur Entfernung
Niederuzwil 8.5 °C 2 km
Bischofszell 10.8 °C 11 km
Berg TG 11.7 °C 15 km
Hörnli 6.8 °C 16 km
Tänikon 10.8 °C 16 km
Amriswil 10.3 °C 18 km
Sommeri 11.6 °C 18 km

Niederschlag

Niederschlagsmenge
mm
1537783200 12.00 11.00 - 12.00 0.0
1537786800 13.00 12.00 - 13.00 0.0
1537790400 14.00 13.00 - 14.00 0.0
1537794000 15.00 14.00 - 15.00 0.0
1537797600 16.00 15.00 - 16.00 0.0
1537801200 17.00 16.00 - 17.00 0.0
1537804800 18.00 17.00 - 18.00 0.0
1537808400 19.00 18.00 - 19.00
1537812000 20.00 19.00 - 20.00
1537815600 21.00 20.00 - 21.00
1537819200 22.00 21.00 - 22.00
1537822800 23.00 22.00 - 23.00
1537826400 0.00 23.00 - 0.00
1537830000 1.00 0.00 - 1.00
1537833600 2.00 1.00 - 2.00
1537837200 3.00 2.00 - 3.00
1537840800 4.00 3.00 - 4.00
1537844400 5.00 4.00 - 5.00
1537848000 6.00 5.00 - 6.00
1537851600 7.00 6.00 - 7.00 0.0
1537855200 8.00 7.00 - 8.00 0.0
1537858800 9.00 8.00 - 9.00 0.0
1537862400 10.00 9.00 - 10.00 0.0
1537866000 11.00 10.00 - 11.00 0.0

Wind

Windrichtung Böen Mittelwind
° km/h km/h
1537783200 12.00 11.00 - 12.00 20° 19 8
1537786800 13.00 12.00 - 13.00 50° 17 6
1537790400 14.00 13.00 - 14.00 50° 15 6
1537794000 15.00 14.00 - 15.00 360° 15 7
1537797600 16.00 15.00 - 16.00 50° 17 5
1537801200 17.00 16.00 - 17.00 20° 19 6
1537804800 18.00 17.00 - 18.00 20° 15 5
1537808400 19.00 18.00 - 19.00 50° 9 4
1537812000 20.00 19.00 - 20.00 140° 5 3
1537815600 21.00 20.00 - 21.00 140° 2 1
1537819200 22.00 21.00 - 22.00
1537822800 23.00 22.00 - 23.00
1537826400 0.00 23.00 - 0.00
1537830000 1.00 0.00 - 1.00
1537833600 2.00 1.00 - 2.00
1537837200 3.00 2.00 - 3.00
1537840800 4.00 3.00 - 4.00
1537844400 5.00 4.00 - 5.00 180° 5 4
1537848000 6.00 5.00 - 6.00 160° 3 0
1537851600 7.00 6.00 - 7.00 160° 5 1
1537855200 8.00 7.00 - 8.00 160° 3 0
1537858800 9.00 8.00 - 9.00 90° 9 1
1537862400 10.00 9.00 - 10.00 50° 29 10
1537866000 11.00 10.00 - 11.00 50° 29 14

Ihre Wetterstation

Fehlt Ihre Wetterstation auf unserem Portal?

Schreiben Sie an network@meteonews.ch

Klima

Wann ist es am wärmsten? Wann regnet es am wenigsten? Unsere Klimadaten geben Auskunft.